메인 페이지
METAR-TAF:

METAR-TAF

공항 :

코지코드, 인도

위도: 11-08-24N, 경도: 75-57-00E, 고도: 104m

현재 날씨관측

예보는 28분 전, 04:30시(UTC)에 발표되었습니다.
4kt
온도 26°C
습도 84%
기압 1014 hPa
시정: 2000m
고도 300ft 상공 구름 보통
고도 1200ft 상공 구름 보통
고도 2500ft 상공 구름 조금, 적란운.
고도 8000ft 상공 흐림
뇌우, 약한비

METAR: VOCL 160430Z 36004KT 2000 -TSRA SCT003 SCT012 FEW025CB OVC080 26/23 Q1014 BECMG 3000 -TSRA BR

시각: 10:28 (04:58 UTC)

예보

예보는 5 시간 58분 전, 23:00시(UTC)에 발표되었습니다.
예보 대상 시간: 16일 00시부터 17일 06시까지 (UTC)
5kt
시정: 4000m
고도 1200ft 상공 구름 조금
고도 8000ft 상공 구름 많음
박무
전환 중
16일 00시부터 16일 04시까지 (UTC)
시정: 1000m
박무
전환 중
16일 06시부터 16일 08시까지 (UTC)
10kt
시정: 6000m
일시적
16일 12시부터 16일 15시까지 (UTC)
시정: 2500m
고도 600ft 상공 구름 보통
고도 1200ft 상공 구름 보통
고도 2500ft 상공 구름 조금, 적란운.
고도 8000ft 상공 구름 많음
전환 중
16일 18시부터 16일 20시까지 (UTC)
고도 1200ft 상공 구름 보통
고도 2500ft 상공 구름 조금, 적란운.
고도 8000ft 상공 구름 많음
전환 중
17일 00시부터 17일 04시까지 (UTC)
동북동5kt
시정: 2000m
고도 1500ft 상공 구름 보통
고도 8000ft 상공 구름 보통
박무

TAF: VOCL 152300Z 1600/1706 09005KT 4000 BR FEW012 BKN080 BECMG 1600/1604 1000 BR BECMG 1606/1608 28010KT 6000 TEMPO 1612/1615 2500 TSRA/RA SCT006 SCT012 FEW025CB BKN080 BECMG 1618/1620 SCT012 FEW025CB BKN080 BECMG 1700/1704 07005KT 2000 BR SCT015 SCT080

4,000개 이상의 공항 관측 자료 및 예보 (METAR 및 TAF 보고).

지도상에서 검색 가능한 기상관측소가 노란 점과 빨간 점으로 표시되어 있습니다.

기상관측소 명을 보려면 표시 위로 마우스를 이동하세요.

날씨 관측과 예보를 보려면 클릭하세요.

지도 변경 : 확대하려면 엑스 표시가 있는 녹색 버튼, 축소하려면 빼기 표시가 있는 녹색 버튼, 다음 페이지의 지도를 보려면 녹색 화살표를 클릭하세요.


METAR-TAF: